createdAt,value
2022-10-06T00:01:14.397Z,5.25
2022-10-06T00:03:40.392Z,2.00
2022-10-06T00:06:07.213Z,2.28
2022-10-06T00:08:35.413Z,2.80
2022-10-06T00:11:01.443Z,3.05
2022-10-06T00:13:29.089Z,3.25
2022-10-06T00:15:55.171Z,5.47
2022-10-06T00:18:21.365Z,3.80
2022-10-06T00:20:57.967Z,1.42
2022-10-06T00:23:24.389Z,3.28
2022-10-06T00:25:51.002Z,2.72
2022-10-06T00:28:16.884Z,2.92
2022-10-06T00:30:43.081Z,4.50
2022-10-06T00:33:16.693Z,1.65
2022-10-06T00:35:43.138Z,1.92
2022-10-06T00:38:13.937Z,4.60
2022-10-06T00:40:48.426Z,2.05
2022-10-06T00:43:38.598Z,3.45
2022-10-06T00:46:10.968Z,2.95
2022-10-06T00:48:37.801Z,1.45
2022-10-06T00:51:04.504Z,3.22
2022-10-06T00:53:31.150Z,5.00
2022-10-06T00:55:57.309Z,4.85
2022-10-06T00:58:24.104Z,4.25
2022-10-06T01:00:54.500Z,4.57
2022-10-06T01:03:30.193Z,4.30
2022-10-06T01:05:57.295Z,3.63
2022-10-06T01:08:23.289Z,4.45
2022-10-06T01:10:49.158Z,5.45
2022-10-06T01:13:17.652Z,6.55
2022-10-06T01:16:04.964Z,15.73
2022-10-06T01:18:32.003Z,4.60
2022-10-06T01:21:14.615Z,4.85
2022-10-06T01:23:40.874Z,4.53
2022-10-06T01:26:10.018Z,4.93
2022-10-06T01:28:37.996Z,7.00
2022-10-06T01:31:04.331Z,7.70
2022-10-06T01:33:30.248Z,5.60
2022-10-06T01:35:56.266Z,3.30
2022-10-06T01:38:22.205Z,6.65
2022-10-06T01:40:50.454Z,2.53
2022-10-06T01:43:16.202Z,3.35
2022-10-06T01:45:41.933Z,5.70
2022-10-06T01:48:07.855Z,4.35
2022-10-06T01:50:33.813Z,6.95
2022-10-06T01:52:59.561Z,3.05
2022-10-06T01:55:26.167Z,6.45
2022-10-06T01:57:52.218Z,7.47
2022-10-06T02:00:18.686Z,3.70
2022-10-06T02:02:44.523Z,5.70
2022-10-06T02:05:11.416Z,8.50
2022-10-06T02:07:37.968Z,3.30
2022-10-06T02:10:05.472Z,5.97
2022-10-06T02:12:32.117Z,5.93
2022-10-06T02:14:58.531Z,7.45
2022-10-06T02:17:24.551Z,7.03
2022-10-06T02:19:50.355Z,7.18
2022-10-06T02:22:16.472Z,8.05
2022-10-06T02:24:42.401Z,7.60
2022-10-06T02:27:08.231Z,6.78
2022-10-06T02:29:34.079Z,11.70
2022-10-06T02:32:00.201Z,8.68
2022-10-06T02:34:26.527Z,5.80
2022-10-06T02:36:52.315Z,12.05
2022-10-06T02:39:18.067Z,11.63
2022-10-06T02:41:43.796Z,9.75
2022-10-06T02:44:09.575Z,8.82
2022-10-06T02:46:35.525Z,8.02
2022-10-06T02:49:01.318Z,9.30
2022-10-06T02:51:27.133Z,6.55
2022-10-06T02:53:53.566Z,9.57
2022-10-06T02:56:24.536Z,10.07
2022-10-06T02:58:51.939Z,6.72
2022-10-06T03:01:20.688Z,11.43
2022-10-06T03:03:46.891Z,11.00
2022-10-06T03:06:21.038Z,6.07
2022-10-06T03:09:00.302Z,8.90
2022-10-06T03:11:31.602Z,7.10
2022-10-06T03:13:58.233Z,6.80
2022-10-06T03:16:27.112Z,6.20
2022-10-06T03:18:54.658Z,9.77
2022-10-06T03:21:22.854Z,10.93
2022-10-06T03:23:50.799Z,11.73
2022-10-06T03:26:19.586Z,10.48
2022-10-06T03:28:46.060Z,9.43
2022-10-06T03:31:13.238Z,10.93
2022-10-06T03:33:39.007Z,8.38
2022-10-06T03:36:09.296Z,9.73
2022-10-06T03:38:35.947Z,9.60
2022-10-06T03:41:26.514Z,11.77
2022-10-06T03:43:53.868Z,11.30
2022-10-06T03:46:22.699Z,10.43
2022-10-06T03:48:51.084Z,13.63
2022-10-06T03:51:22.763Z,9.43
2022-10-06T03:53:51.170Z,10.15
2022-10-06T03:56:29.157Z,9.18
2022-10-06T03:59:16.729Z,11.80
2022-10-06T04:01:45.109Z,10.27
2022-10-06T04:04:11.505Z,11.75
2022-10-06T04:06:39.879Z,8.32
2022-10-06T04:09:11.321Z,7.93
2022-10-06T04:11:41.296Z,9.05
2022-10-06T04:14:09.759Z,7.88
2022-10-06T04:16:38.424Z,15.00
2022-10-06T04:19:06.543Z,13.77
2022-10-06T04:21:35.858Z,12.93
2022-10-06T04:24:02.258Z,6.35
2022-10-06T04:26:31.866Z,11.45
2022-10-06T04:28:58.091Z,13.35
2022-10-06T04:31:30.734Z,12.02
2022-10-06T04:33:58.811Z,8.38
2022-10-06T04:36:27.563Z,15.70
2022-10-06T04:38:57.466Z,11.18
2022-10-06T04:41:28.222Z,13.43
2022-10-06T04:43:54.762Z,11.90
2022-10-06T04:46:42.101Z,13.75
2022-10-06T04:49:08.620Z,7.05
2022-10-06T04:51:34.446Z,11.90
2022-10-06T04:54:01.797Z,13.70
2022-10-06T04:56:31.068Z,16.25
2022-10-06T04:58:58.042Z,10.52
2022-10-06T05:01:32.448Z,13.48
2022-10-06T05:04:00.292Z,14.38
2022-10-06T05:06:28.845Z,12.85
2022-10-06T05:08:57.724Z,16.73
2022-10-06T05:11:26.002Z,13.00
2022-10-06T05:13:56.847Z,17.45
2022-10-06T05:16:24.374Z,16.38
2022-10-06T05:18:50.152Z,11.23
2022-10-06T05:21:19.311Z,11.73
2022-10-06T05:23:45.411Z,14.15
2022-10-06T05:26:17.510Z,14.20
2022-10-06T05:28:43.874Z,14.77
2022-10-06T05:31:11.589Z,16.58
2022-10-06T05:33:37.552Z,11.38
2022-10-06T05:36:10.351Z,16.73
2022-10-06T05:38:36.229Z,13.95
2022-10-06T05:41:12.742Z,14.32
2022-10-06T05:43:39.394Z,15.57
2022-10-06T05:46:09.630Z,13.65
2022-10-06T05:48:35.582Z,21.38
2022-10-06T05:51:07.326Z,20.27
2022-10-06T05:53:34.960Z,15.52
2022-10-06T05:56:08.616Z,15.13
2022-10-06T05:58:36.697Z,17.40
2022-10-06T06:01:17.648Z,20.08
2022-10-06T06:03:48.291Z,16.17
2022-10-06T06:06:22.467Z,14.40
2022-10-06T06:08:52.588Z,18.92
2022-10-06T06:11:18.821Z,15.52
2022-10-06T06:13:44.676Z,24.23
2022-10-06T06:16:14.809Z,15.18
2022-10-06T06:18:41.061Z,18.23
2022-10-06T06:21:08.754Z,24.08
2022-10-06T06:23:37.371Z,14.05
2022-10-06T06:26:08.619Z,12.10
2022-10-06T06:28:36.259Z,18.02
2022-10-06T06:31:06.415Z,14.18
2022-10-06T06:33:33.663Z,12.60
2022-10-06T06:36:02.477Z,15.73
2022-10-06T06:38:31.258Z,12.18
2022-10-06T06:40:57.294Z,13.77
2022-10-06T06:43:23.021Z,18.50
2022-10-06T06:45:48.848Z,12.57
2022-10-06T06:48:15.253Z,11.43
2022-10-06T06:50:42.321Z,10.20
2022-10-06T06:53:08.259Z,12.68
2022-10-06T06:55:35.120Z,13.07
2022-10-06T06:58:00.900Z,15.32
2022-10-06T07:00:26.700Z,15.15
2022-10-06T07:02:55.489Z,10.93
2022-10-06T07:05:21.876Z,12.57
2022-10-06T07:07:47.708Z,13.00
2022-10-06T07:10:13.576Z,15.70
2022-10-06T07:12:39.301Z,13.50
2022-10-06T07:15:24.587Z,16.25
2022-10-06T07:18:08.658Z,15.57
2022-10-06T07:20:53.016Z,17.95
2022-10-06T07:23:38.936Z,17.23
2022-10-06T07:30:59.848Z,13.40
2022-10-06T07:33:31.573Z,13.55
2022-10-06T07:35:57.367Z,14.35
2022-10-06T07:38:26.812Z,13.00
2022-10-06T07:43:42.517Z,15.38
2022-10-06T07:46:11.491Z,18.75
2022-10-06T07:48:39.946Z,16.35
2022-10-06T07:51:16.652Z,14.52
2022-10-06T07:53:46.024Z,13.85
2022-10-06T07:56:15.001Z,24.15
2022-10-06T07:58:41.142Z,18.85
2022-10-06T08:01:09.417Z,15.38
2022-10-06T08:03:39.867Z,18.33
2022-10-06T08:06:06.311Z,17.52
2022-10-06T08:08:37.142Z,14.00
2022-10-06T08:11:04.554Z,19.35
2022-10-06T08:13:33.334Z,18.50
2022-10-06T08:16:06.895Z,14.38
2022-10-06T08:18:48.225Z,16.25
2022-10-06T08:21:20.145Z,14.60
2022-10-06T08:23:47.630Z,19.58
2022-10-06T08:26:14.470Z,12.68
2022-10-06T08:28:43.927Z,19.25
2022-10-06T08:31:14.810Z,13.23
2022-10-06T08:33:41.938Z,15.65
2022-10-06T08:36:19.013Z,25.92
2022-10-06T08:38:49.560Z,12.75
2022-10-06T08:41:39.674Z,13.10
2022-10-06T08:44:20.228Z,20.75
2022-10-06T08:47:03.564Z,17.77
2022-10-06T08:49:36.213Z,24.52
2022-10-06T08:52:17.069Z,17.70
2022-10-06T08:55:13.567Z,15.00
2022-10-06T08:57:46.474Z,14.98
2022-10-06T09:00:19.485Z,16.83
2022-10-06T09:02:50.139Z,19.83
2022-10-06T09:05:24.642Z,16.15
2022-10-06T09:08:12.090Z,17.25
2022-10-06T09:11:01.739Z,20.65
2022-10-06T09:13:39.069Z,17.50
2022-10-06T09:16:13.544Z,15.95
2022-10-06T09:19:08.763Z,15.07
2022-10-06T09:22:05.554Z,21.92
2022-10-06T09:24:38.007Z,11.45
2022-10-06T09:27:22.553Z,9.93
2022-10-06T09:29:49.634Z,14.98
2022-10-06T09:32:17.898Z,15.32
2022-10-06T09:34:49.954Z,10.63
2022-10-06T09:37:16.045Z,13.73
2022-10-06T09:39:50.187Z,17.92
2022-10-06T09:42:21.245Z,15.43
2022-10-06T09:44:56.601Z,15.43
2022-10-06T09:47:32.558Z,15.25
2022-10-06T09:50:24.059Z,24.75
2022-10-06T09:53:05.004Z,13.32
2022-10-06T09:55:40.851Z,18.35
2022-10-06T09:58:22.603Z,15.25
2022-10-06T10:00:54.548Z,16.23
2022-10-06T10:03:21.877Z,12.93
2022-10-06T10:05:56.026Z,18.70
2022-10-06T10:08:24.441Z,14.32
2022-10-06T10:11:29.555Z,11.27
2022-10-06T10:13:59.628Z,10.45
2022-10-06T10:16:33.658Z,13.80
2022-10-06T10:19:01.475Z,9.90
2022-10-06T10:21:34.408Z,13.70
2022-10-06T10:24:02.761Z,11.02
2022-10-06T10:26:38.235Z,8.25
2022-10-06T10:29:40.776Z,7.18
2022-10-06T10:32:26.723Z,10.90
2022-10-06T10:35:02.609Z,8.68
2022-10-06T10:37:51.330Z,8.32
2022-10-06T10:40:47.319Z,8.23
2022-10-06T10:43:28.714Z,7.47
2022-10-06T10:46:16.130Z,10.77
2022-10-06T10:49:00.680Z,7.10
2022-10-06T10:51:32.200Z,7.25
2022-10-06T10:54:09.637Z,9.13
2022-10-06T10:56:35.720Z,8.35
2022-10-06T10:59:26.484Z,6.50
2022-10-06T11:02:02.277Z,7.40
2022-10-06T11:04:28.235Z,5.95
2022-10-06T11:07:25.737Z,8.77
2022-10-06T11:10:06.445Z,8.18
2022-10-06T11:12:38.279Z,8.23
2022-10-06T11:15:23.903Z,7.90
2022-10-06T11:20:51.315Z,7.63
2022-10-06T11:23:27.951Z,6.93
2022-10-06T11:26:06.494Z,6.13
2022-10-06T11:28:59.921Z,4.53
2022-10-06T11:31:53.816Z,5.95
2022-10-06T11:34:19.920Z,7.32
2022-10-06T11:36:52.556Z,7.03
2022-10-06T11:40:00.430Z,8.48
2022-10-06T11:42:47.718Z,6.05
2022-10-06T11:45:15.672Z,5.95
2022-10-06T11:48:11.098Z,7.07
2022-10-06T11:50:41.982Z,5.28
2022-10-06T11:53:38.491Z,5.13
2022-10-06T11:56:16.047Z,6.90
2022-10-06T11:58:50.625Z,7.47
2022-10-06T12:01:35.431Z,6.32
2022-10-06T12:06:52.326Z,6.22
2022-10-06T12:09:37.488Z,7.32
2022-10-06T12:12:18.411Z,3.70
2022-10-06T12:20:52.603Z,9.45
2022-10-06T12:23:24.612Z,8.20
2022-10-06T12:26:20.457Z,7.38
2022-10-06T12:29:13.870Z,3.60
2022-10-06T12:31:54.302Z,5.72
2022-10-06T12:34:52.988Z,9.77
2022-10-06T12:37:43.259Z,4.90
2022-10-06T12:40:42.063Z,6.72
2022-10-06T12:43:14.167Z,5.47
2022-10-06T12:45:46.844Z,5.07
2022-10-06T12:48:21.398Z,4.15
2022-10-06T12:50:50.764Z,6.95
2022-10-06T12:53:22.995Z,4.50
2022-10-06T12:56:01.981Z,4.43
2022-10-06T12:58:30.320Z,6.15
2022-10-06T13:01:04.607Z,3.05
2022-10-06T13:03:30.699Z,8.40
2022-10-06T13:06:07.865Z,5.07
2022-10-06T13:08:38.692Z,3.90
2022-10-06T13:11:11.296Z,7.03
2022-10-06T13:13:44.804Z,7.07
2022-10-06T13:16:10.980Z,3.47
2022-10-06T13:18:36.840Z,5.03
2022-10-06T13:21:02.795Z,4.50
2022-10-06T13:23:33.145Z,3.10
2022-10-06T13:26:06.226Z,7.03
2022-10-06T13:28:43.887Z,6.20
2022-10-06T13:31:23.065Z,4.82
2022-10-06T13:34:00.231Z,5.95
2022-10-06T13:36:32.104Z,6.60
2022-10-06T13:38:58.227Z,7.18
2022-10-06T13:41:30.167Z,8.60
2022-10-06T13:44:18.596Z,4.07
2022-10-06T13:47:07.720Z,7.80
2022-10-06T13:49:50.375Z,5.45
2022-10-06T13:52:20.964Z,6.93
2022-10-06T13:54:52.171Z,6.75
2022-10-06T13:57:42.836Z,5.22
2022-10-06T14:00:14.437Z,7.93
2022-10-06T14:02:42.107Z,6.28
2022-10-06T14:05:25.639Z,6.75
2022-10-06T14:07:53.686Z,7.07
2022-10-06T14:10:27.362Z,9.23
2022-10-06T14:12:53.344Z,9.05
2022-10-06T14:15:22.213Z,8.93
2022-10-06T14:18:16.959Z,4.97
2022-10-06T14:20:48.206Z,7.63
2022-10-06T14:23:48.586Z,6.57
2022-10-06T14:26:16.848Z,6.15
2022-10-06T14:28:48.793Z,8.70
2022-10-06T14:31:15.077Z,11.48
2022-10-06T14:33:41.222Z,7.57
2022-10-06T14:36:15.307Z,11.95
2022-10-06T14:38:41.064Z,8.35
2022-10-06T14:41:07.270Z,8.93
2022-10-06T14:43:33.067Z,7.57
2022-10-06T14:46:03.976Z,7.85
2022-10-06T14:48:32.126Z,8.00
2022-10-06T14:51:02.367Z,9.60
2022-10-06T14:53:28.409Z,8.27
2022-10-06T14:55:54.231Z,5.60
2022-10-06T14:58:19.975Z,8.88
2022-10-06T15:00:45.796Z,7.38
2022-10-06T15:03:11.723Z,8.07
2022-10-06T15:05:57.674Z,8.23
2022-10-06T15:08:23.584Z,7.60
2022-10-06T15:10:52.648Z,6.72
2022-10-06T15:13:18.859Z,6.72
2022-10-06T15:15:45.121Z,8.23
2022-10-06T15:18:11.571Z,7.47
2022-10-06T15:20:37.494Z,10.45
2022-10-06T15:23:03.255Z,9.10
2022-10-06T15:25:54.890Z,7.07
2022-10-06T15:28:39.014Z,7.00
2022-10-06T15:31:05.745Z,12.05
2022-10-06T15:33:31.588Z,6.65
2022-10-06T15:36:18.196Z,11.68
2022-10-06T15:38:44.163Z,10.32
2022-10-06T15:41:10.629Z,8.52
2022-10-06T15:43:55.711Z,7.68
2022-10-06T15:46:35.238Z,8.02
2022-10-06T15:49:03.809Z,7.60
2022-10-06T15:51:34.069Z,5.55
2022-10-06T15:54:00.414Z,10.20
2022-10-06T15:56:28.059Z,10.27
2022-10-06T15:58:54.631Z,8.38
2022-10-06T16:01:33.645Z,5.72
2022-10-06T16:04:08.956Z,5.80
2022-10-06T16:06:53.602Z,3.83
2022-10-06T16:09:19.675Z,6.75
2022-10-06T16:11:46.574Z,6.55
2022-10-06T16:14:13.433Z,6.47
2022-10-06T16:16:43.496Z,6.10
2022-10-06T16:19:10.110Z,10.05
2022-10-06T16:21:36.028Z,10.57
2022-10-06T16:24:01.877Z,9.57
2022-10-06T16:26:27.925Z,12.07
2022-10-06T16:28:54.111Z,11.32
2022-10-06T16:31:20.918Z,7.90
2022-10-06T16:33:47.315Z,6.60
2022-10-06T16:36:15.042Z,12.95
2022-10-06T16:38:41.524Z,8.45
2022-10-06T16:41:07.648Z,7.80
2022-10-06T16:43:34.739Z,6.93
2022-10-06T16:46:03.478Z,3.70
2022-10-06T16:48:37.540Z,5.97
2022-10-06T16:51:07.584Z,7.30
2022-10-06T16:54:03.604Z,6.78
2022-10-06T16:56:31.936Z,7.72
2022-10-06T16:58:59.667Z,8.50
2022-10-06T17:01:28.163Z,8.65
2022-10-06T17:04:02.965Z,11.05
2022-10-06T17:06:30.780Z,9.45
2022-10-06T17:08:56.875Z,10.27
2022-10-06T17:11:24.619Z,7.53
2022-10-06T17:13:57.029Z,8.80
2022-10-06T17:16:28.773Z,7.28
2022-10-06T17:18:55.646Z,5.80
2022-10-06T17:21:44.147Z,8.70
2022-10-06T17:24:07.731Z,10.02
2022-10-06T17:26:36.040Z,9.23
2022-10-06T17:29:05.224Z,8.05
2022-10-06T17:31:34.570Z,9.45
2022-10-06T17:34:03.113Z,8.23
2022-10-06T17:36:28.937Z,6.50
2022-10-06T17:39:00.722Z,7.22
2022-10-06T17:41:32.558Z,7.55
2022-10-06T17:44:02.432Z,7.43
2022-10-06T17:46:30.602Z,8.25
2022-10-06T17:48:57.223Z,10.25
2022-10-06T17:51:26.188Z,16.05
2022-10-06T17:53:55.694Z,8.98
2022-10-06T17:56:24.509Z,9.55
2022-10-06T17:58:58.818Z,6.78
2022-10-06T18:01:28.185Z,7.18
2022-10-06T18:03:56.258Z,8.82
2022-10-06T18:06:26.168Z,5.82
2022-10-06T18:08:53.978Z,6.63
2022-10-06T18:11:42.420Z,13.45
2022-10-06T18:14:13.484Z,3.50
2022-10-06T18:16:44.496Z,7.00
2022-10-06T18:19:13.358Z,7.60
2022-10-06T18:21:41.161Z,6.47
2022-10-06T18:24:15.893Z,13.85
2022-10-06T18:26:47.377Z,8.30
2022-10-06T18:29:15.773Z,7.70
2022-10-06T18:31:42.181Z,4.60
2022-10-06T18:36:56.981Z,7.70
2022-10-06T18:39:22.852Z,5.70
2022-10-06T18:41:50.382Z,5.05
2022-10-06T18:44:36.233Z,7.97
2022-10-06T18:47:20.530Z,5.05
2022-10-06T18:49:46.424Z,9.68
2022-10-06T18:52:12.273Z,10.95
2022-10-06T18:54:38.493Z,6.93
2022-10-06T18:57:04.258Z,7.22
2022-10-06T18:59:30.668Z,9.10
2022-10-06T19:01:57.339Z,8.95
2022-10-06T19:04:23.329Z,5.93
2022-10-06T19:06:54.216Z,7.35
2022-10-06T19:09:22.038Z,9.77
2022-10-06T19:11:51.659Z,10.13
2022-10-06T19:14:34.151Z,9.25
2022-10-06T19:17:05.995Z,6.03
2022-10-06T19:19:33.421Z,7.13
2022-10-06T19:22:02.070Z,6.85
2022-10-06T19:24:39.510Z,14.00
2022-10-06T19:27:20.137Z,9.23
2022-10-06T19:29:53.844Z,7.40
2022-10-06T19:32:24.090Z,6.32
2022-10-06T19:34:50.081Z,6.18
2022-10-06T19:37:16.153Z,8.60
2022-10-06T19:39:44.116Z,4.25
2022-10-06T19:42:33.808Z,6.70
2022-10-06T19:44:59.575Z,9.55
2022-10-06T19:47:26.987Z,8.02
2022-10-06T19:49:56.133Z,10.85
2022-10-06T19:52:24.709Z,10.23
2022-10-06T19:54:50.516Z,7.03
2022-10-06T19:57:16.450Z,6.22
2022-10-06T19:59:42.303Z,8.32
2022-10-06T20:02:10.048Z,8.68
2022-10-06T20:04:36.326Z,8.82
2022-10-06T20:07:02.871Z,6.70
2022-10-06T20:09:32.194Z,4.93
2022-10-06T20:11:58.715Z,5.70
2022-10-06T20:14:25.701Z,7.25
2022-10-06T20:16:53.651Z,6.38
2022-10-06T20:19:20.225Z,8.68
2022-10-06T20:21:47.706Z,7.72
2022-10-06T20:24:21.699Z,6.97
2022-10-06T20:26:49.760Z,6.72
2022-10-06T20:29:18.595Z,8.65
2022-10-06T20:31:47.784Z,7.07
2022-10-06T20:34:16.368Z,8.25
2022-10-06T20:36:42.627Z,7.57
2022-10-06T20:39:31.256Z,7.03
2022-10-06T20:41:57.333Z,9.00
2022-10-06T20:44:23.185Z,9.52
2022-10-06T20:46:50.573Z,6.30
2022-10-06T20:49:17.806Z,7.38
2022-10-06T20:51:46.520Z,5.15
2022-10-06T20:54:13.689Z,6.45
2022-10-06T20:56:39.438Z,7.05
2022-10-06T20:59:08.682Z,9.73
2022-10-06T21:01:36.534Z,6.40
2022-10-06T21:04:03.233Z,9.05
2022-10-06T21:06:30.160Z,4.53
2022-10-06T21:08:58.076Z,9.68
2022-10-06T21:11:25.846Z,8.95
2022-10-06T21:13:52.975Z,8.85
2022-10-06T21:16:31.642Z,8.63
2022-10-06T21:19:02.956Z,8.13
2022-10-06T21:21:29.800Z,9.63
2022-10-06T21:23:55.611Z,5.88
2022-10-06T21:26:25.341Z,6.30
2022-10-06T21:28:52.048Z,7.93
2022-10-06T21:31:23.313Z,5.13
2022-10-06T21:33:50.839Z,8.40
2022-10-06T21:36:22.246Z,13.15
2022-10-06T21:38:50.821Z,3.45
2022-10-06T21:41:24.803Z,6.15
2022-10-06T21:43:59.922Z,5.13
2022-10-06T21:46:29.184Z,8.45
2022-10-06T21:48:56.978Z,13.35
2022-10-06T21:51:24.279Z,7.10
2022-10-06T21:53:51.887Z,9.07
2022-10-06T21:56:19.185Z,7.97
2022-10-06T21:58:52.112Z,7.13
2022-10-06T22:01:29.954Z,8.57
2022-10-06T22:03:57.904Z,11.52
2022-10-06T22:06:24.113Z,7.35
2022-10-06T22:08:50.220Z,9.00
2022-10-06T22:11:21.707Z,7.60
2022-10-06T22:13:50.050Z,6.63
2022-10-06T22:16:18.801Z,7.80
2022-10-06T22:18:45.475Z,11.82
2022-10-06T22:21:14.295Z,7.15
2022-10-06T22:23:42.300Z,11.85
2022-10-06T22:26:09.285Z,9.05
2022-10-06T22:28:36.050Z,12.82
2022-10-06T22:31:03.397Z,7.15
2022-10-06T22:33:30.103Z,7.68
2022-10-06T22:35:56.030Z,9.88
2022-10-06T22:38:21.777Z,7.05
2022-10-06T22:40:47.572Z,7.32
2022-10-06T22:43:13.303Z,8.52
2022-10-06T22:45:39.036Z,9.77
2022-10-06T22:48:04.771Z,10.70
2022-10-06T22:50:30.526Z,11.45
2022-10-06T22:52:56.458Z,9.63
2022-10-06T22:55:22.371Z,7.55
2022-10-06T22:57:48.108Z,11.05
2022-10-06T23:00:14.308Z,8.80
2022-10-06T23:02:40.081Z,9.75
2022-10-06T23:05:06.031Z,9.15
2022-10-06T23:07:32.049Z,10.20
2022-10-06T23:09:57.852Z,6.85
2022-10-06T23:12:23.592Z,9.13
2022-10-06T23:14:49.448Z,12.20
2022-10-06T23:17:15.210Z,16.75
2022-10-06T23:19:41.085Z,10.10
2022-10-06T23:22:06.842Z,6.32
2022-10-06T23:24:32.596Z,7.82
2022-10-06T23:27:03.458Z,11.43
2022-10-06T23:29:30.043Z,8.52
2022-10-06T23:31:56.116Z,8.90
2022-10-06T23:34:21.962Z,9.20
2022-10-06T23:36:47.677Z,12.65
2022-10-06T23:39:13.451Z,8.48
2022-10-06T23:41:40.838Z,8.55
2022-10-06T23:44:06.935Z,9.55
2022-10-06T23:46:32.711Z,7.57
2022-10-06T23:48:58.587Z,8.25
2022-10-06T23:51:24.370Z,8.10
2022-10-06T23:53:50.132Z,9.02
2022-10-06T23:56:18.083Z,7.40
2022-10-06T23:58:44.260Z,10.38
